Alexander Duff — WDD9658 — position and weather

sailwx.info

Track history (hours):
 
Tides and Currents Weather Stations Pressure Air Temp Water Temp Dewpoint Dewpoint Depression Visibility Wind Speed Wind Dir Waves Ship Positions

Alexander Duff

Owner: Vane Line Bunkering, Philadelphia, PA. More information available from US FCC via Universal Licensing System and Coast Guard Vessel Documentation Center.

Last reported at 2018-Feb-18 03:39 UTC. Time now 2018-Feb-23 12:30 UTC.
Position N 37°14' W 076°12'.

Length 19 m; draft 2 m.

MMSI: 367314530.

Date/timePositionNaut miles runAvg speedWind from/ knotsBaromVisibWave heightAir tempDewpointWater temp
2018-Feb-18 03:39N 37°14' W 076°12'1 7.4
2018-Feb-18 03:28N 37°13' W 076°12'4 7.3
2018-Feb-18 02:58N 37°09' W 076°12'4 7.1
2018-Feb-18 02:28N 37°06' W 076°13'4 6.9
2018-Feb-18 01:57N 37°02' W 076°14'3 6.1
2018-Feb-18 01:30N 37°00' W 076°17'3 5.3
2018-Feb-18 01:00N 36°59' W 076°20'3 6.2
2018-Feb-18 00:30N 36°56' W 076°20'3 6.3
2018-Feb-18 00:00N 36°53' W 076°20'3 6.1
2018-Feb-17 23:30N 36°50' W 076°18'2 4.7
2018-Feb-17 23:01N 36°48' W 076°17'0 0.0
2018-Feb-17 22:31N 36°48' W 076°17'0 0.4
2018-Feb-17 22:00N 36°48' W 076°17'2 5.0
2018-Feb-17 21:30N 36°51' W 076°18'3 5.8
2018-Feb-17 21:00N 36°53' W 076°20'3 5.5
2018-Feb-17 20:30N 36°56' W 076°20'2 4.8
2018-Feb-17 20:00N 36°58' W 076°20'2 3.8
2018-Feb-17 19:30N 36°60' W 076°19'2 3.6
2018-Feb-17 19:00N 37°00' W 076°17'2 4.1
2018-Feb-17 18:30N 37°01' W 076°14'2 4.4
2018-Feb-17 18:00N 37°03' W 076°12'2 4.8
2018-Feb-17 17:30N 37°05' W 076°11'2 4.9
2018-Feb-17 16:59N 37°08' W 076°11'2 4.7
2018-Feb-17 16:29N 37°10' W 076°11'2 4.5
2018-Feb-17 15:59N 37°12' W 076°11'97 6.4
2018-Feb-17 00:41N 38°48' W 076°27'1 6.4
2018-Feb-17 00:31N 38°50' W 076°27'3 6.1
2018-Feb-17 00:00N 38°53' W 076°26'3 6.0
2018-Feb-16 23:31N 38°55' W 076°25'3 6.0
2018-Feb-16 22:59N 38°58' W 076°23'3 5.7
2018-Feb-16 22:31N 39°01' W 076°23'3 5.8
2018-Feb-16 21:59N 39°04' W 076°23'3 6.0
2018-Feb-16 21:30N 39°07' W 076°24'3 5.9
2018-Feb-16 21:01N 39°10' W 076°25'4 5.8
2018-Feb-16 20:21N 39°12' W 076°30'2 6.0
2018-Feb-16 20:00N 39°13' W 076°32'2 4.8
2018-Feb-16 19:30N 39°13' W 076°35'0 0.5
2018-Feb-16 19:01N 39°13' W 076°35'0 0.1
2018-Feb-16 18:30N 39°13' W 076°35'0 0.0
2018-Feb-16 18:00N 39°13' W 076°35'0 0.0
2018-Feb-16 17:27N 39°13' W 076°35'1 2.7
2018-Feb-16 17:01N 39°13' W 076°34'3 6.6
2018-Feb-16 16:30N 39°12' W 076°30'3 6.8
2018-Feb-16 16:00N 39°10' W 076°26'3 6.4
2018-Feb-16 15:31N 39°08' W 076°24'3 6.4
2018-Feb-16 15:00N 39°04' W 076°23'3 6.6
2018-Feb-16 14:31N 39°01' W 076°22'3 6.7
2018-Feb-16 14:01N 38°58' W 076°24'4 7.0
2018-Feb-16 13:31N 38°55' W 076°25'3 6.9
2018-Feb-16 13:01N 38°51' W 076°26'3 6.9
2018-Feb-16 12:31N 38°48' W 076°27'  
2018-Feb-13 23:58N 37°13' W 076°12'3 7.5
2018-Feb-13 23:30N 37°10' W 076°12'4 7.4
2018-Feb-13 23:00N 37°06' W 076°13'3 6.9
2018-Feb-13 22:30N 37°03' W 076°14'3 6.3
2018-Feb-13 22:00N 37°00' W 076°17'3 6.5
2018-Feb-13 21:30N 36°58' W 076°20'3 6.9
2018-Feb-13 21:00N 36°55' W 076°20'3 6.6
2018-Feb-13 20:30N 36°52' W 076°19'3 5.9
2018-Feb-13 20:01N 36°49' W 076°17'1 2.2
2018-Feb-13 19:31N 36°48' W 076°18'0 0.0
2018-Feb-13 19:01N 36°48' W 076°18'0 0.0
2018-Feb-13 18:31N 36°48' W 076°18'0 0.0
2018-Feb-13 18:01N 36°48' W 076°18'0 0.0
2018-Feb-13 17:31N 36°48' W 076°18'0 0.0
2018-Feb-13 17:01N 36°48' W 076°18'0 0.0
2018-Feb-13 16:31N 36°48' W 076°18'0 0.0
2018-Feb-13 16:01N 36°48' W 076°18'0 0.0
2018-Feb-13 15:30N 36°48' W 076°18'0 0.0
2018-Feb-13 15:01N 36°48' W 076°18'0 0.0
2018-Feb-13 14:31N 36°48' W 076°18'0 0.0
2018-Feb-13 14:01N 36°48' W 076°18'0 0.0
2018-Feb-13 13:31N 36°48' W 076°18'0 0.0
2018-Feb-13 13:00N 36°48' W 076°18'0 0.0
2018-Feb-13 12:30N 36°48' W 076°18'0 0.0
2018-Feb-13 12:00N 36°48' W 076°18'0 0.0
2018-Feb-13 11:30N 36°48' W 076°18'0 0.0
2018-Feb-13 11:01N 36°48' W 076°18'0 0.0
2018-Feb-13 10:31N 36°48' W 076°18'0 0.0
2018-Feb-13 10:00N 36°48' W 076°18'0 0.0
2018-Feb-13 09:30N 36°48' W 076°18'0 0.0
2018-Feb-13 09:00N 36°48' W 076°18'0 0.0
2018-Feb-13 08:31N 36°48' W 076°18'0 0.0
2018-Feb-13 08:01N 36°48' W 076°18'0 0.0
2018-Feb-13 07:31N 36°48' W 076°18'0 0.0
2018-Feb-13 07:01N 36°48' W 076°18'0 0.0
2018-Feb-13 06:30N 36°48' W 076°18'0 0.0
2018-Feb-13 06:01N 36°48' W 076°18'0 0.0
2018-Feb-13 05:31N 36°48' W 076°18'0 0.0
2018-Feb-13 05:01N 36°48' W 076°18'0 0.0
2018-Feb-13 04:30N 36°48' W 076°18'0 0.0
2018-Feb-13 04:01N 36°48' W 076°18'0 0.0
2018-Feb-13 03:31N 36°48' W 076°18'0 0.0
2018-Feb-13 03:00N 36°48' W 076°18'0 0.0
2018-Feb-13 02:30N 36°48' W 076°18'0 0.0
2018-Feb-13 02:00N 36°48' W 076°18'0 0.0
2018-Feb-13 01:31N 36°48' W 076°18'0 0.0
2018-Feb-13 01:01N 36°48' W 076°18'0 0.0
2018-Feb-13 00:30N 36°48' W 076°18'0 0.0
2018-Feb-13 00:00N 36°48' W 076°18'0 0.0
2018-Feb-12 23:31N 36°48' W 076°18'0 0.0
2018-Feb-12 23:01N 36°48' W 076°18'0 0.0
2018-Feb-12 22:31N 36°48' W 076°18'0 0.0
2018-Feb-12 22:01N 36°48' W 076°18'0 0.0
2018-Feb-12 21:31N 36°48' W 076°18'0 0.0
2018-Feb-12 21:01N 36°48' W 076°18'0 0.4
2018-Feb-12 20:31N 36°48' W 076°18'2 4.8
2018-Feb-12 20:00N 36°50' W 076°17'0 0.9
2018-Feb-12 19:30N 36°50' W 076°16'0 0.9
2018-Feb-12 19:01N 36°50' W 076°17'0 0.0
2018-Feb-12 17:29N 36°50' W 076°17'0 0.1
2018-Feb-12 17:00N 36°50' W 076°17'0 0.1
2018-Feb-12 16:30N 36°50' W 076°17'2 3.9
2018-Feb-12 16:01N 36°48' W 076°17'1 1.1
2018-Feb-12 15:30N 36°48' W 076°18'0 0.0
2018-Feb-12 15:01N 36°48' W 076°18'0 0.0
2018-Feb-12 14:31N 36°48' W 076°18'0 0.0
2018-Feb-12 14:01N 36°48' W 076°18'0 0.0
2018-Feb-12 13:31N 36°48' W 076°18'0 0.0
2018-Feb-12 13:00N 36°48' W 076°18'0 0.0
2018-Feb-12 12:31N 36°48' W 076°18'0 0.0
2018-Feb-12 12:01N 36°48' W 076°18'0 0.0
2018-Feb-12 11:31N 36°48' W 076°18'0 0.0
2018-Feb-12 11:00N 36°48' W 076°18'0 0.0
2018-Feb-12 10:31N 36°48' W 076°18'0 0.0
2018-Feb-12 10:01N 36°48' W 076°18'0 0.0
2018-Feb-12 09:30N 36°48' W 076°18'0 0.0
2018-Feb-12 09:00N 36°48' W 076°18'0 0.0
2018-Feb-12 08:30N 36°48' W 076°18'0 0.0
2018-Feb-12 08:00N 36°48' W 076°18'0 0.0
2018-Feb-12 07:30N 36°48' W 076°18'0 0.0
2018-Feb-12 07:01N 36°48' W 076°18'0 0.0
2018-Feb-12 06:31N 36°48' W 076°18'0 0.0
2018-Feb-12 06:01N 36°48' W 076°18'0 0.0
2018-Feb-12 05:31N 36°48' W 076°18'0 0.0
2018-Feb-12 05:01N 36°48' W 076°18'0 0.0
2018-Feb-12 04:30N 36°48' W 076°18'0 0.0
2018-Feb-12 04:01N 36°48' W 076°18'0 0.0
2018-Feb-12 03:31N 36°48' W 076°18'0 0.0
2018-Feb-12 03:01N 36°48' W 076°18'0 0.0
2018-Feb-12 02:31N 36°48' W 076°18'0 0.0
2018-Feb-12 02:01N 36°48' W 076°18'0 0.0
2018-Feb-12 01:31N 36°48' W 076°18'0 0.0
2018-Feb-12 01:01N 36°48' W 076°18'0 0.0
2018-Feb-12 00:31N 36°48' W 076°18'0 0.0
2018-Feb-12 00:01N 36°48' W 076°18'0 0.0
2018-Feb-11 23:31N 36°48' W 076°18'0 0.0
2018-Feb-11 23:01N 36°48' W 076°18'0 0.0
2018-Feb-11 22:31N 36°48' W 076°18'0 0.0
2018-Feb-11 22:01N 36°48' W 076°18'0 0.0
2018-Feb-11 21:31N 36°48' W 076°18'0 0.0
2018-Feb-11 21:01N 36°48' W 076°18'0 0.0
2018-Feb-11 20:31N 36°48' W 076°18'0 0.0
2018-Feb-11 20:01N 36°48' W 076°18'0 0.0
2018-Feb-11 19:31N 36°48' W 076°18'0 0.0
2018-Feb-11 19:01N 36°48' W 076°18'0 0.0
2018-Feb-11 18:31N 36°48' W 076°18'0 0.0
2018-Feb-11 18:01N 36°48' W 076°18'0 0.0
2018-Feb-11 17:31N 36°48' W 076°18'0 0.0
2018-Feb-11 17:00N 36°48' W 076°18'0 0.0
2018-Feb-11 16:31N 36°48' W 076°18'0 0.0
2018-Feb-11 16:01N 36°48' W 076°18'0 0.0
2018-Feb-11 15:31N 36°48' W 076°18'0 0.0
2018-Feb-11 15:00N 36°48' W 076°18'0 0.0
2018-Feb-11 14:30N 36°48' W 076°18'0 0.0
2018-Feb-11 14:01N 36°48' W 076°18'0 0.0
2018-Feb-11 13:31N 36°48' W 076°18'0 0.0
2018-Feb-11 13:01N 36°48' W 076°18'0 0.0
2018-Feb-11 12:31N 36°48' W 076°18'0 0.0
2018-Feb-11 12:01N 36°48' W 076°18'0 0.0
2018-Feb-11 11:31N 36°48' W 076°18'0 0.0
2018-Feb-11 11:01N 36°48' W 076°18'0 0.0
2018-Feb-11 10:31N 36°48' W 076°18'0 0.0
2018-Feb-11 10:00N 36°48' W 076°18'0 0.0
2018-Feb-11 09:31N 36°48' W 076°18'0 0.0
2018-Feb-11 09:01N 36°48' W 076°18'0 0.0
2018-Feb-11 08:31N 36°48' W 076°18'0 0.0
2018-Feb-11 08:01N 36°48' W 076°18'0 0.0
2018-Feb-11 07:31N 36°48' W 076°18'0 0.0
2018-Feb-11 07:01N 36°48' W 076°18'0 0.0
2018-Feb-11 06:31N 36°48' W 076°18'0 0.0
2018-Feb-11 06:00N 36°48' W 076°18'0 0.0
2018-Feb-11 05:31N 36°48' W 076°18'0 0.0
2018-Feb-11 05:01N 36°48' W 076°18'0 0.0
2018-Feb-11 04:31N 36°48' W 076°18'0 0.0
2018-Feb-11 04:01N 36°48' W 076°18'0 0.0
2018-Feb-11 03:31N 36°48' W 076°18'0 0.0
2018-Feb-11 03:01N 36°48' W 076°18'0 0.0
2018-Feb-11 02:31N 36°48' W 076°18'0 0.0
2018-Feb-11 02:00N 36°48' W 076°18'0 0.0
2018-Feb-11 01:31N 36°48' W 076°18'0 0.0
2018-Feb-11 01:00N 36°48' W 076°18'0 0.0
2018-Feb-11 00:31N 36°48' W 076°18'0 0.0
2018-Feb-11 00:01N 36°48' W 076°18'0 0.0
2018-Feb-10 23:31N 36°48' W 076°18'0 0.0
2018-Feb-10 23:01N 36°48' W 076°18'0 0.0
2018-Feb-10 22:30N 36°48' W 076°18'0 0.0
2018-Feb-10 22:01N 36°48' W 076°18'0 0.0
2018-Feb-10 21:30N 36°48' W 076°18'0 0.0
2018-Feb-10 21:00N 36°48' W 076°18'0 0.0
2018-Feb-10 20:31N 36°48' W 076°18'0 0.0
2018-Feb-10 20:01N 36°48' W 076°18'1 2.4
2018-Feb-10 19:31N 36°49' W 076°17'3 6.6
2018-Feb-10 19:01N 36°52' W 076°20'1 1.5
2018-Feb-10 18:29N 36°53' W 076°20'0 0.0
2018-Feb-10 17:58N 36°53' W 076°20'0 0.0
2018-Feb-10 17:27N 36°53' W 076°20'0 0.0
2018-Feb-10 16:57N 36°53' W 076°20'0 0.0
2018-Feb-10 16:25N 36°53' W 076°20'0 0.0
2018-Feb-10 15:56N 36°53' W 076°20'0 0.0
2018-Feb-10 15:28N 36°53' W 076°20'0 0.0
2018-Feb-10 15:00N 36°53' W 076°20'0 0.0
2018-Feb-10 14:29N 36°53' W 076°20'0 0.0
2018-Feb-10 14:00N 36°53' W 076°20'0 0.0
2018-Feb-10 13:30N 36°53' W 076°20'0 0.0
2018-Feb-10 12:59N 36°53' W 076°20'2 4.1
2018-Feb-10 12:31N 36°51' W 076°18'3 6.4
2018-Feb-10 12:01N 36°48' W 076°17'0 0.3
2018-Feb-10 11:31N 36°48' W 076°18'0 0.0
2018-Feb-10 11:01N 36°48' W 076°18'0 0.0
2018-Feb-10 10:31N 36°48' W 076°18'0 0.0
2018-Feb-10 10:01N 36°48' W 076°18'0 0.0
2018-Feb-10 09:30N 36°48' W 076°18'0 0.0
2018-Feb-10 09:01N 36°48' W 076°18'0 0.0
2018-Feb-10 08:30N 36°48' W 076°18'0 0.0
2018-Feb-10 08:01N 36°48' W 076°18'0 0.0
2018-Feb-10 07:31N 36°48' W 076°18'0 0.0
2018-Feb-10 07:01N 36°48' W 076°18'0 0.0
2018-Feb-10 06:31N 36°48' W 076°18'0 0.0
2018-Feb-10 06:01N 36°48' W 076°18'0 0.0
2018-Feb-10 05:31N 36°48' W 076°18'0 0.0
2018-Feb-10 05:01N 36°48' W 076°18'0 0.0
2018-Feb-10 04:31N 36°48' W 076°18'0 0.0
2018-Feb-10 04:01N 36°48' W 076°18'0 0.0
2018-Feb-10 03:31N 36°48' W 076°18'0 0.0
2018-Feb-10 03:01N 36°48' W 076°18'0 0.0
2018-Feb-10 02:31N 36°48' W 076°18'0 0.0
2018-Feb-10 02:01N 36°48' W 076°18'0 0.0
2018-Feb-10 01:31N 36°48' W 076°18'0 0.0
2018-Feb-10 01:00N 36°48' W 076°18'0 0.0
2018-Feb-10 00:31N 36°48' W 076°18'0 0.0
2018-Feb-10 00:00N 36°48' W 076°18'0 0.0
2018-Feb-09 23:31N 36°48' W 076°18'0 0.0
2018-Feb-09 23:01N 36°48' W 076°18'0 0.0
2018-Feb-09 22:46N 36°48' W 076°18'0 0.0
2018-Feb-09 22:30N 36°48' W 076°18'0 0.0
2018-Feb-09 22:01N 36°48' W 076°18'0 0.0
2018-Feb-09 21:31N 36°48' W 076°18'0 0.0
2018-Feb-09 21:01N 36°48' W 076°18'0 0.0
2018-Feb-09 19:31N 36°48' W 076°18'0 0.0
2018-Feb-09 19:01N 36°48' W 076°18'0 0.0
2018-Feb-09 18:31N 36°48' W 076°18'0 0.0
2018-Feb-09 18:01N 36°48' W 076°18'0 0.0
2018-Feb-09 17:31N 36°48' W 076°18'0 0.0
2018-Feb-09 17:01N 36°48' W 076°18'0 0.0
2018-Feb-09 16:30N 36°48' W 076°18'0 0.0
2018-Feb-09 16:01N 36°48' W 076°18'0 0.0
2018-Feb-09 15:31N 36°48' W 076°18'0 0.0
2018-Feb-09 15:01N 36°48' W 076°18'0 0.0
2018-Feb-09 14:31N 36°48' W 076°18'0 0.0
2018-Feb-09 14:01N 36°48' W 076°18'0 0.0
2018-Feb-09 13:01N 36°48' W 076°18'0 0.0
2018-Feb-09 12:31N 36°48' W 076°18'0 0.0
2018-Feb-09 12:01N 36°48' W 076°18'0 0.0
2018-Feb-09 11:31N 36°48' W 076°18'0 0.0
2018-Feb-09 11:01N 36°48' W 076°18'0 0.0
2018-Feb-09 10:01N 36°48' W 076°18'0 0.0
2018-Feb-09 09:31N 36°48' W 076°18'0 0.0
2018-Feb-09 09:01N 36°48' W 076°18'0 0.0
2018-Feb-09 08:31N 36°48' W 076°18'0 0.0
2018-Feb-09 08:01N 36°48' W 076°18'0 0.0
2018-Feb-09 07:31N 36°48' W 076°18'0 0.0
2018-Feb-09 07:01N 36°48' W 076°18'0 0.0
2018-Feb-09 06:31N 36°48' W 076°18'0 0.0
2018-Feb-09 06:01N 36°48' W 076°18'0 0.1
2018-Feb-09 04:31N 36°48' W 076°18'1 2.7
2018-Feb-09 04:01N 36°47' W 076°18'0 0.0
2018-Feb-09 03:31N 36°47' W 076°18'0 0.0
2018-Feb-09 01:31N 36°47' W 076°18'0 0.1
2018-Feb-08 23:00N 36°47' W 076°19'1 2.7
2018-Feb-08 22:30N 36°48' W 076°18'1 2.7
2018-Feb-08 22:00N 36°49' W 076°17'1 0.1
2018-Feb-08 12:30N 36°48' W 076°18'0 0.0
2018-Feb-08 04:00N 36°48' W 076°18'  
Track history (hours):
 
Tides and Currents Weather Stations Pressure Air Temp Water Temp Dewpoint Dewpoint Depression Visibility Wind Speed Wind Dir Waves Ship Positions

Alexander Duff

Owner: Vane Line Bunkering, Philadelphia, PA. More information available from US FCC via Universal Licensing System and Coast Guard Vessel Documentation Center.

Last reported at 2018-Feb-18 03:39 UTC. Time now 2018-Feb-23 12:30 UTC.
Position N 37°14' W 076°12'.

Length 19 m; draft 2 m.

MMSI: 367314530.

Date/timePositionNaut miles runAvg speedWind from/ knotsBaromVisibWave heightAir tempDewpointWater temp
2018-Feb-18 03:39N 37°14' W 076°12'1 7.4
2018-Feb-18 03:28N 37°13' W 076°12'4 7.3
2018-Feb-18 02:58N 37°09' W 076°12'4 7.1
2018-Feb-18 02:28N 37°06' W 076°13'4 6.9
2018-Feb-18 01:57N 37°02' W 076°14'3 6.1
2018-Feb-18 01:30N 37°00' W 076°17'3 5.3
2018-Feb-18 01:00N 36°59' W 076°20'3 6.2
2018-Feb-18 00:30N 36°56' W 076°20'3 6.3
2018-Feb-18 00:00N 36°53' W 076°20'3 6.1
2018-Feb-17 23:30N 36°50' W 076°18'2 4.7
2018-Feb-17 23:01N 36°48' W 076°17'0 0.0
2018-Feb-17 22:31N 36°48' W 076°17'0 0.4
2018-Feb-17 22:00N 36°48' W 076°17'2 5.0
2018-Feb-17 21:30N 36°51' W 076°18'3 5.8
2018-Feb-17 21:00N 36°53' W 076°20'3 5.5
2018-Feb-17 20:30N 36°56' W 076°20'2 4.8
2018-Feb-17 20:00N 36°58' W 076°20'2 3.8
2018-Feb-17 19:30N 36°60' W 076°19'2 3.6
2018-Feb-17 19:00N 37°00' W 076°17'2 4.1
2018-Feb-17 18:30N 37°01' W 076°14'2 4.4
2018-Feb-17 18:00N 37°03' W 076°12'2 4.8
2018-Feb-17 17:30N 37°05' W 076°11'2 4.9
2018-Feb-17 16:59N 37°08' W 076°11'2 4.7
2018-Feb-17 16:29N 37°10' W 076°11'2 4.5
2018-Feb-17 15:59N 37°12' W 076°11'97 6.4
2018-Feb-17 00:41N 38°48' W 076°27'1 6.4
2018-Feb-17 00:31N 38°50' W 076°27'3 6.1
2018-Feb-17 00:00N 38°53' W 076°26'3 6.0
2018-Feb-16 23:31N 38°55' W 076°25'3 6.0
2018-Feb-16 22:59N 38°58' W 076°23'3 5.7
2018-Feb-16 22:31N 39°01' W 076°23'3 5.8
2018-Feb-16 21:59N 39°04' W 076°23'3 6.0
2018-Feb-16 21:30N 39°07' W 076°24'3 5.9
2018-Feb-16 21:01N 39°10' W 076°25'4 5.8
2018-Feb-16 20:21N 39°12' W 076°30'2 6.0
2018-Feb-16 20:00N 39°13' W 076°32'2 4.8
2018-Feb-16 19:30N 39°13' W 076°35'0 0.5
2018-Feb-16 19:01N 39°13' W 076°35'0 0.1
2018-Feb-16 18:30N 39°13' W 076°35'0 0.0
2018-Feb-16 18:00N 39°13' W 076°35'0 0.0
2018-Feb-16 17:27N 39°13' W 076°35'1 2.7
2018-Feb-16 17:01N 39°13' W 076°34'3 6.6
2018-Feb-16 16:30N 39°12' W 076°30'3 6.8
2018-Feb-16 16:00N 39°10' W 076°26'3 6.4
2018-Feb-16 15:31N 39°08' W 076°24'3 6.4
2018-Feb-16 15:00N 39°04' W 076°23'3 6.6
2018-Feb-16 14:31N 39°01' W 076°22'3 6.7
2018-Feb-16 14:01N 38°58' W 076°24'4 7.0
2018-Feb-16 13:31N 38°55' W 076°25'3 6.9
2018-Feb-16 13:01N 38°51' W 076°26'3 6.9
2018-Feb-16 12:31N 38°48' W 076°27'  
2018-Feb-13 23:58N 37°13' W 076°12'3 7.5
2018-Feb-13 23:30N 37°10' W 076°12'4 7.4
2018-Feb-13 23:00N 37°06' W 076°13'3 6.9
2018-Feb-13 22:30N 37°03' W 076°14'3 6.3
2018-Feb-13 22:00N 37°00' W 076°17'3 6.5
2018-Feb-13 21:30N 36°58' W 076°20'3 6.9
2018-Feb-13 21:00N 36°55' W 076°20'3 6.6
2018-Feb-13 20:30N 36°52' W 076°19'3 5.9
2018-Feb-13 20:01N 36°49' W 076°17'1 2.2
2018-Feb-13 19:31N 36°48' W 076°18'0 0.0
2018-Feb-13 19:01N 36°48' W 076°18'0 0.0
2018-Feb-13 18:31N 36°48' W 076°18'0 0.0
2018-Feb-13 18:01N 36°48' W 076°18'0 0.0
2018-Feb-13 17:31N 36°48' W 076°18'0 0.0
2018-Feb-13 17:01N 36°48' W 076°18'0 0.0
2018-Feb-13 16:31N 36°48' W 076°18'0 0.0
2018-Feb-13 16:01N 36°48' W 076°18'0 0.0
2018-Feb-13 15:30N 36°48' W 076°18'0 0.0
2018-Feb-13 15:01N 36°48' W 076°18'0 0.0
2018-Feb-13 14:31N 36°48' W 076°18'0 0.0
2018-Feb-13 14:01N 36°48' W 076°18'0 0.0
2018-Feb-13 13:31N 36°48' W 076°18'0 0.0
2018-Feb-13 13:00N 36°48' W 076°18'0 0.0
2018-Feb-13 12:30N 36°48' W 076°18'0 0.0
2018-Feb-13 12:00N 36°48' W 076°18'0 0.0
2018-Feb-13 11:30N 36°48' W 076°18'0 0.0
2018-Feb-13 11:01N 36°48' W 076°18'0 0.0
2018-Feb-13 10:31N 36°48' W 076°18'0 0.0
2018-Feb-13 10:00N 36°48' W 076°18'0 0.0
2018-Feb-13 09:30N 36°48' W 076°18'0 0.0
2018-Feb-13 09:00N 36°48' W 076°18'0 0.0
2018-Feb-13 08:31N 36°48' W 076°18'0 0.0
2018-Feb-13 08:01N 36°48' W 076°18'0 0.0
2018-Feb-13 07:31N 36°48' W 076°18'0 0.0
2018-Feb-13 07:01N 36°48' W 076°18'0 0.0
2018-Feb-13 06:30N 36°48' W 076°18'0 0.0
2018-Feb-13 06:01N 36°48' W 076°18'0 0.0
2018-Feb-13 05:31N 36°48' W 076°18'0 0.0
2018-Feb-13 05:01N 36°48' W 076°18'0 0.0
2018-Feb-13 04:30N 36°48' W 076°18'0 0.0
2018-Feb-13 04:01N 36°48' W 076°18'0 0.0
2018-Feb-13 03:31N 36°48' W 076°18'0 0.0
2018-Feb-13 03:00N 36°48' W 076°18'0 0.0
2018-Feb-13 02:30N 36°48' W 076°18'0 0.0
2018-Feb-13 02:00N 36°48' W 076°18'0 0.0
2018-Feb-13 01:31N 36°48' W 076°18'0 0.0
2018-Feb-13 01:01N 36°48' W 076°18'0 0.0
2018-Feb-13 00:30N 36°48' W 076°18'0 0.0
2018-Feb-13 00:00N 36°48' W 076°18'0 0.0
2018-Feb-12 23:31N 36°48' W 076°18'0 0.0
2018-Feb-12 23:01N 36°48' W 076°18'0 0.0
2018-Feb-12 22:31N 36°48' W 076°18'0 0.0
2018-Feb-12 22:01N 36°48' W 076°18'0 0.0
2018-Feb-12 21:31N 36°48' W 076°18'0 0.0
2018-Feb-12 21:01N 36°48' W 076°18'0 0.4
2018-Feb-12 20:31N 36°48' W 076°18'2 4.8
2018-Feb-12 20:00N 36°50' W 076°17'0 0.9
2018-Feb-12 19:30N 36°50' W 076°16'0 0.9
2018-Feb-12 19:01N 36°50' W 076°17'0 0.0
2018-Feb-12 17:29N 36°50' W 076°17'0 0.1
2018-Feb-12 17:00N 36°50' W 076°17'0 0.1
2018-Feb-12 16:30N 36°50' W 076°17'2 3.9
2018-Feb-12 16:01N 36°48' W 076°17'1 1.1
2018-Feb-12 15:30N 36°48' W 076°18'0 0.0
2018-Feb-12 15:01N 36°48' W 076°18'0 0.0
2018-Feb-12 14:31N 36°48' W 076°18'0 0.0
2018-Feb-12 14:01N 36°48' W 076°18'0 0.0
2018-Feb-12 13:31N 36°48' W 076°18'0 0.0
2018-Feb-12 13:00N 36°48' W 076°18'0 0.0
2018-Feb-12 12:31N 36°48' W 076°18'0 0.0
2018-Feb-12 12:01N 36°48' W 076°18'0 0.0
2018-Feb-12 11:31N 36°48' W 076°18'0 0.0
2018-Feb-12 11:00N 36°48' W 076°18'0 0.0
2018-Feb-12 10:31N 36°48' W 076°18'0 0.0
2018-Feb-12 10:01N 36°48' W 076°18'0 0.0
2018-Feb-12 09:30N 36°48' W 076°18'0 0.0
2018-Feb-12 09:00N 36°48' W 076°18'0 0.0
2018-Feb-12 08:30N 36°48' W 076°18'0 0.0
2018-Feb-12 08:00N 36°48' W 076°18'0 0.0
2018-Feb-12 07:30N 36°48' W 076°18'0 0.0
2018-Feb-12 07:01N 36°48' W 076°18'0 0.0
2018-Feb-12 06:31N 36°48' W 076°18'0 0.0
2018-Feb-12 06:01N 36°48' W 076°18'0 0.0
2018-Feb-12 05:31N 36°48' W 076°18'0 0.0
2018-Feb-12 05:01N 36°48' W 076°18'0 0.0
2018-Feb-12 04:30N 36°48' W 076°18'0 0.0
2018-Feb-12 04:01N 36°48' W 076°18'0 0.0
2018-Feb-12 03:31N 36°48' W 076°18'0 0.0
2018-Feb-12 03:01N 36°48' W 076°18'0 0.0
2018-Feb-12 02:31N 36°48' W 076°18'0 0.0
2018-Feb-12 02:01N 36°48' W 076°18'0 0.0
2018-Feb-12 01:31N 36°48' W 076°18'0 0.0
2018-Feb-12 01:01N 36°48' W 076°18'0 0.0
2018-Feb-12 00:31N 36°48' W 076°18'0 0.0
2018-Feb-12 00:01N 36°48' W 076°18'0 0.0
2018-Feb-11 23:31N 36°48' W 076°18'0 0.0
2018-Feb-11 23:01N 36°48' W 076°18'0 0.0
2018-Feb-11 22:31N 36°48' W 076°18'0 0.0
2018-Feb-11 22:01N 36°48' W 076°18'0 0.0
2018-Feb-11 21:31N 36°48' W 076°18'0 0.0
2018-Feb-11 21:01N 36°48' W 076°18'0 0.0
2018-Feb-11 20:31N 36°48' W 076°18'0 0.0
2018-Feb-11 20:01N 36°48' W 076°18'0 0.0
2018-Feb-11 19:31N 36°48' W 076°18'0 0.0
2018-Feb-11 19:01N 36°48' W 076°18'0 0.0
2018-Feb-11 18:31N 36°48' W 076°18'0 0.0
2018-Feb-11 18:01N 36°48' W 076°18'0 0.0
2018-Feb-11 17:31N 36°48' W 076°18'0 0.0
2018-Feb-11 17:00N 36°48' W 076°18'0 0.0
2018-Feb-11 16:31N 36°48' W 076°18'0 0.0
2018-Feb-11 16:01N 36°48' W 076°18'0 0.0
2018-Feb-11 15:31N 36°48' W 076°18'0 0.0
2018-Feb-11 15:00N 36°48' W 076°18'0 0.0
2018-Feb-11 14:30N 36°48' W 076°18'0 0.0
2018-Feb-11 14:01N 36°48' W 076°18'0 0.0
2018-Feb-11 13:31N 36°48' W 076°18'0 0.0
2018-Feb-11 13:01N 36°48' W 076°18'0 0.0
2018-Feb-11 12:31N 36°48' W 076°18'0 0.0
2018-Feb-11 12:01N 36°48' W 076°18'0 0.0
2018-Feb-11 11:31N 36°48' W 076°18'0 0.0
2018-Feb-11 11:01N 36°48' W 076°18'0 0.0
2018-Feb-11 10:31N 36°48' W 076°18'0 0.0
2018-Feb-11 10:00N 36°48' W 076°18'0 0.0
2018-Feb-11 09:31N 36°48' W 076°18'0 0.0
2018-Feb-11 09:01N 36°48' W 076°18'0 0.0
2018-Feb-11 08:31N 36°48' W 076°18'0 0.0
2018-Feb-11 08:01N 36°48' W 076°18'0 0.0
2018-Feb-11 07:31N 36°48' W 076°18'0 0.0
2018-Feb-11 07:01N 36°48' W 076°18'0 0.0
2018-Feb-11 06:31N 36°48' W 076°18'0 0.0
2018-Feb-11 06:00N 36°48' W 076°18'0 0.0
2018-Feb-11 05:31N 36°48' W 076°18'0 0.0
2018-Feb-11 05:01N 36°48' W 076°18'0 0.0
2018-Feb-11 04:31N 36°48' W 076°18'0 0.0
2018-Feb-11 04:01N 36°48' W 076°18'0 0.0
2018-Feb-11 03:31N 36°48' W 076°18'0 0.0
2018-Feb-11 03:01N 36°48' W 076°18'0 0.0
2018-Feb-11 02:31N 36°48' W 076°18'0 0.0
2018-Feb-11 02:00N 36°48' W 076°18'0 0.0
2018-Feb-11 01:31N 36°48' W 076°18'0 0.0
2018-Feb-11 01:00N 36°48' W 076°18'0 0.0
2018-Feb-11 00:31N 36°48' W 076°18'0 0.0
2018-Feb-11 00:01N 36°48' W 076°18'0 0.0
2018-Feb-10 23:31N 36°48' W 076°18'0 0.0
2018-Feb-10 23:01N 36°48' W 076°18'0 0.0
2018-Feb-10 22:30N 36°48' W 076°18'0 0.0
2018-Feb-10 22:01N 36°48' W 076°18'0 0.0
2018-Feb-10 21:30N 36°48' W 076°18'0 0.0
2018-Feb-10 21:00N 36°48' W 076°18'0 0.0
2018-Feb-10 20:31N 36°48' W 076°18'0 0.0
2018-Feb-10 20:01N 36°48' W 076°18'1 2.4
2018-Feb-10 19:31N 36°49' W 076°17'3 6.6
2018-Feb-10 19:01N 36°52' W 076°20'1 1.5
2018-Feb-10 18:29N 36°53' W 076°20'0 0.0
2018-Feb-10 17:58N 36°53' W 076°20'0 0.0
2018-Feb-10 17:27N 36°53' W 076°20'0 0.0
2018-Feb-10 16:57N 36°53' W 076°20'0 0.0
2018-Feb-10 16:25N 36°53' W 076°20'0 0.0
2018-Feb-10 15:56N 36°53' W 076°20'0 0.0
2018-Feb-10 15:28N 36°53' W 076°20'0 0.0
2018-Feb-10 15:00N 36°53' W 076°20'0 0.0
2018-Feb-10 14:29N 36°53' W 076°20'0 0.0
2018-Feb-10 14:00N 36°53' W 076°20'0 0.0
2018-Feb-10 13:30N 36°53' W 076°20'0 0.0
2018-Feb-10 12:59N 36°53' W 076°20'2 4.1
2018-Feb-10 12:31N 36°51' W 076°18'3 6.4
2018-Feb-10 12:01N 36°48' W 076°17'0 0.3
2018-Feb-10 11:31N 36°48' W 076°18'0 0.0
2018-Feb-10 11:01N 36°48' W 076°18'0 0.0
2018-Feb-10 10:31N 36°48' W 076°18'0 0.0
2018-Feb-10 10:01N 36°48' W 076°18'0 0.0
2018-Feb-10 09:30N 36°48' W 076°18'0 0.0
2018-Feb-10 09:01N 36°48' W 076°18'0 0.0
2018-Feb-10 08:30N 36°48' W 076°18'0 0.0
2018-Feb-10 08:01N 36°48' W 076°18'0 0.0
2018-Feb-10 07:31N 36°48' W 076°18'0 0.0
2018-Feb-10 07:01N 36°48' W 076°18'0 0.0
2018-Feb-10 06:31N 36°48' W 076°18'0 0.0
2018-Feb-10 06:01N 36°48' W 076°18'0 0.0
2018-Feb-10 05:31N 36°48' W 076°18'0 0.0
2018-Feb-10 05:01N 36°48' W 076°18'0 0.0
2018-Feb-10 04:31N 36°48' W 076°18'0 0.0
2018-Feb-10 04:01N 36°48' W 076°18'0 0.0
2018-Feb-10 03:31N 36°48' W 076°18'0 0.0
2018-Feb-10 03:01N 36°48' W 076°18'0 0.0
2018-Feb-10 02:31N 36°48' W 076°18'0 0.0
2018-Feb-10 02:01N 36°48' W 076°18'0 0.0
2018-Feb-10 01:31N 36°48' W 076°18'0 0.0
2018-Feb-10 01:00N 36°48' W 076°18'0 0.0
2018-Feb-10 00:31N 36°48' W 076°18'0 0.0
2018-Feb-10 00:00N 36°48' W 076°18'0 0.0
2018-Feb-09 23:31N 36°48' W 076°18'0 0.0
2018-Feb-09 23:01N 36°48' W 076°18'0 0.0
2018-Feb-09 22:46N 36°48' W 076°18'0 0.0
2018-Feb-09 22:30N 36°48' W 076°18'0 0.0
2018-Feb-09 22:01N 36°48' W 076°18'0 0.0
2018-Feb-09 21:31N 36°48' W 076°18'0 0.0
2018-Feb-09 21:01N 36°48' W 076°18'0 0.0
2018-Feb-09 19:31N 36°48' W 076°18'0 0.0
2018-Feb-09 19:01N 36°48' W 076°18'0 0.0
2018-Feb-09 18:31N 36°48' W 076°18'0 0.0
2018-Feb-09 18:01N 36°48' W 076°18'0 0.0
2018-Feb-09 17:31N 36°48' W 076°18'0 0.0
2018-Feb-09 17:01N 36°48' W 076°18'0 0.0
2018-Feb-09 16:30N 36°48' W 076°18'0 0.0
2018-Feb-09 16:01N 36°48' W 076°18'0 0.0
2018-Feb-09 15:31N 36°48' W 076°18'0 0.0
2018-Feb-09 15:01N 36°48' W 076°18'0 0.0
2018-Feb-09 14:31N 36°48' W 076°18'0 0.0
2018-Feb-09 14:01N 36°48' W 076°18'0 0.0
2018-Feb-09 13:01N 36°48' W 076°18'0 0.0
2018-Feb-09 12:31N 36°48' W 076°18'0 0.0
2018-Feb-09 12:01N 36°48' W 076°18'0 0.0
2018-Feb-09 11:31N 36°48' W 076°18'0 0.0
2018-Feb-09 11:01N 36°48' W 076°18'0 0.0
2018-Feb-09 10:01N 36°48' W 076°18'0 0.0
2018-Feb-09 09:31N 36°48' W 076°18'0 0.0
2018-Feb-09 09:01N 36°48' W 076°18'0 0.0
2018-Feb-09 08:31N 36°48' W 076°18'0 0.0
2018-Feb-09 08:01N 36°48' W 076°18'0 0.0
2018-Feb-09 07:31N 36°48' W 076°18'0 0.0
2018-Feb-09 07:01N 36°48' W 076°18'0 0.0
2018-Feb-09 06:31N 36°48' W 076°18'0 0.0
2018-Feb-09 06:01N 36°48' W 076°18'0 0.1
2018-Feb-09 04:31N 36°48' W 076°18'1 2.7
2018-Feb-09 04:01N 36°47' W 076°18'0 0.0
2018-Feb-09 03:31N 36°47' W 076°18'0 0.0
2018-Feb-09 01:31N 36°47' W 076°18'0 0.1
2018-Feb-08 23:00N 36°47' W 076°19'1 2.7
2018-Feb-08 22:30N 36°48' W 076°18'1 2.7
2018-Feb-08 22:00N 36°49' W 076°17'1 0.1
2018-Feb-08 12:30N 36°48' W 076°18'0 0.0
2018-Feb-08 04:00N 36°48' W 076°18'  

Dump ship's entire track history